Time;durP1;ratioP1;P1;durP2;ratioP2;P2;SDS_P1;SDS_P2;PMS_P1;PMS_P2;Temp;Humidity;BMP_temperature;BMP_pressure;BME280_temperature;BME280_humidity;BME280_pressure;Samples;Min_cycle;Max_cycle;Signal;HPM_P1;HPM_P2
2023/08/11 00:01:32;;;;;;;5.33;4.40;;;;;;;-148.15;100.00;61821.78;4993918;28;20030;-87
2023/08/11 00:03:58;;;;;;;6.73;4.60;;;;;;;-148.15;100.00;61821.78;4992824;28;20431;-87
2023/08/11 00:06:25;;;;;;;6.73;4.70;;;;;;;-148.15;100.00;61821.78;4980596;28;20054;-87
2023/08/11 00:08:50;;;;;;;7.63;4.47;;;;;;;-148.15;100.00;61821.78;4976508;28;20421;-87
2023/08/11 00:11:15;;;;;;;5.23;4.73;;;;;;;-148.15;100.00;61821.78;4997398;28;20030;-87
2023/08/11 00:13:42;;;;;;;6.40;5.03;;;;;;;-148.15;100.00;61821.78;4992945;28;20034;-87
2023/08/11 00:16:08;;;;;;;7.63;5.20;;;;;;;-148.15;100.00;61821.78;4993046;28;20069;-87
2023/08/11 00:18:33;;;;;;;8.63;5.38;;;;;;;-148.15;100.00;61821.78;4994000;28;20038;-87
2023/08/11 00:20:59;;;;;;;8.40;5.13;;;;;;;-148.15;100.00;61821.78;4939581;28;20033;-87
2023/08/11 00:23:25;;;;;;;8.48;5.35;;;;;;;-148.15;100.00;61821.78;4962450;28;20529;-87
2023/08/11 00:25:50;;;;;;;6.70;5.37;;;;;;;-148.15;100.00;61821.78;4971497;28;20027;-87
2023/08/11 00:28:16;;;;;;;8.57;5.50;;;;;;;-148.15;100.00;61821.78;4972153;28;20027;-87
2023/08/11 00:30:41;;;;;;;7.13;5.05;;;;;;;-148.15;100.00;61821.78;4981437;28;20030;-87
2023/08/11 00:33:06;;;;;;;7.70;5.20;;;;;;;-148.15;100.00;61821.78;4972174;28;20328;-87
2023/08/11 00:35:32;;;;;;;8.20;5.40;;;;;;;-148.15;100.00;61821.78;4972389;28;20034;-87
2023/08/11 00:37:57;;;;;;;8.33;5.40;;;;;;;-148.15;100.00;61821.78;4970329;28;20035;-87
2023/08/11 00:40:23;;;;;;;8.77;5.40;;;;;;;-148.15;100.00;61821.78;4969932;28;20031;-87
2023/08/11 00:42:49;;;;;;;9.35;5.38;;;;;;;-148.15;100.00;61821.78;4975316;28;20425;-87
2023/08/11 00:45:15;;;;;;;7.47;5.45;;;;;;;-148.15;100.00;61821.78;4993535;28;20474;-88
2023/08/11 00:47:44;;;;;;;6.78;5.43;;;;;;;-148.15;100.00;61821.78;4970498;28;20041;-87
2023/08/11 00:50:13;;;;;;;8.13;5.47;;;;;;;-148.15;100.00;61821.78;4985887;28;20124;-87
2023/08/11 00:52:39;;;;;;;8.50;5.50;;;;;;;-148.15;100.00;61821.78;4990837;28;20030;-87
2023/08/11 00:55:08;;;;;;;8.47;5.53;;;;;;;-148.15;100.00;61821.78;4972683;28;20333;-88
2023/08/11 00:57:34;;;;;;;6.80;5.63;;;;;;;-148.15;100.00;61821.78;4957169;28;20046;-91
2023/08/11 01:00:11;;;;;;;9.02;5.65;;;;;;;-148.15;100.00;61821.78;4978230;28;20042;-87
2023/08/11 01:02:36;;;;;;;9.55;5.88;;;;;;;-148.15;100.00;61821.78;4991037;28;20025;-87
2023/08/11 01:05:03;;;;;;;7.80;5.77;;;;;;;-148.15;100.00;61821.78;4996800;28;20019;-86
2023/08/11 01:07:38;;;;;;;7.95;6.90;;;;;;;-148.15;100.00;61821.78;4986419;28;20059;-84
2023/08/11 01:10:16;;;;;;;8.50;6.13;;;;;;;-148.15;100.00;61821.78;4993025;28;20035;-87
2023/08/11 01:13:06;;;;;;;7.55;6.07;;;;;;;-148.15;100.00;61821.78;4971759;28;20031;-87
2023/08/11 01:15:39;;;;;;;10.38;6.90;;;;;;;-148.15;100.00;61821.78;4969105;28;20031;-87
2023/08/11 01:18:06;;;;;;;7.65;6.47;;;;;;;-148.15;100.00;61821.78;4973699;28;20077;-87
2023/08/11 01:20:34;;;;;;;9.37;6.87;;;;;;;-148.15;100.00;61821.78;4936699;28;1102215;-87
2023/08/11 01:23:01;;;;;;;8.10;6.30;;;;;;;-148.15;100.00;61821.78;4974662;28;20118;-87
2023/08/11 01:25:28;;;;;;;10.45;7.00;;;;;;;-148.15;100.00;61821.78;4974284;28;20026;-87
2023/08/11 01:27:56;;;;;;;13.05;7.20;;;;;;;-148.15;100.00;61821.78;4974028;28;20034;-86
2023/08/11 01:30:23;;;;;;;9.82;7.30;;;;;;;-148.15;100.00;61821.78;4975194;28;20034;-87
2023/08/11 01:32:48;;;;;;;10.00;7.43;;;;;;;-148.15;100.00;61821.78;4975286;28;20022;-87
2023/08/11 01:35:17;;;;;;;11.37;7.40;;;;;;;-148.15;100.00;61821.78;4984357;28;20368;-85
2023/08/11 01:37:43;;;;;;;11.15;7.35;;;;;;;-148.15;100.00;61821.78;4996195;28;20043;-87
2023/08/11 01:40:13;;;;;;;11.98;7.93;;;;;;;-148.15;100.00;61821.78;4991783;28;20031;-85
2023/08/11 01:42:40;;;;;;;9.15;7.93;;;;;;;-148.15;100.00;61821.78;4983707;28;20182;-87
2023/08/11 01:45:07;;;;;;;12.80;8.00;;;;;;;-148.15;100.00;61821.78;4997041;28;20049;-87
2023/08/11 01:47:35;;;;;;;10.13;7.50;;;;;;;-148.15;100.00;61821.78;4996721;28;20845;-86
2023/08/11 01:50:02;;;;;;;12.02;7.53;;;;;;;-148.15;100.00;61821.78;4994351;28;20045;-85
2023/08/11 01:52:33;;;;;;;9.45;7.72;;;;;;;-148.15;100.00;61821.78;4987367;28;20475;-87
2023/08/11 01:54:58;;;;;;;10.63;7.32;;;;;;;-148.15;100.00;61821.78;4972774;28;20106;-87
2023/08/11 01:57:24;;;;;;;9.63;7.60;;;;;;;-148.15;100.00;61821.78;4971152;28;20232;-87
2023/08/11 01:59:50;;;;;;;8.70;7.47;;;;;;;-148.15;100.00;61821.78;4989614;28;20992;-87
2023/08/11 02:02:16;;;;;;;10.70;7.60;;;;;;;-148.15;100.00;61821.78;4988616;28;20041;-87
2023/08/11 02:04:42;;;;;;;11.23;7.90;;;;;;;-148.15;100.00;61821.78;4970960;28;20038;-87
2023/08/11 02:07:07;;;;;;;12.55;7.60;;;;;;;-148.15;100.00;61821.78;4984074;28;20037;-87
2023/08/11 02:09:33;;;;;;;9.17;8.20;;;;;;;-148.15;100.00;61821.78;4990798;28;20026;-87
2023/08/11 02:11:58;;;;;;;10.35;7.95;;;;;;;-148.15;100.00;61821.78;4978733;28;20023;-87
2023/08/11 02:14:23;;;;;;;9.90;8.03;;;;;;;-148.15;100.00;61821.78;4972186;28;20167;-87
2023/08/11 02:16:49;;;;;;;11.37;8.47;;;;;;;-148.15;100.00;61821.78;4971835;28;20034;-87
2023/08/11 02:19:15;;;;;;;10.35;8.65;;;;;;;-148.15;100.00;61821.78;4987240;28;20041;-90
2023/08/11 02:21:40;;;;;;;13.60;8.70;;;;;;;-148.15;100.00;61821.78;4972704;28;20046;-88
2023/08/11 02:24:06;;;;;;;9.85;8.68;;;;;;;-148.15;100.00;61821.78;4972168;28;20033;-89
2023/08/11 02:26:32;;;;;;;15.43;9.53;;;;;;;-148.15;100.00;61821.78;4961998;28;20035;-90
2023/08/11 02:28:58;;;;;;;12.57;9.30;;;;;;;-148.15;100.00;61821.78;4969209;28;20061;-91
2023/08/11 02:31:23;;;;;;;13.13;8.73;;;;;;;-148.15;100.00;61821.78;4976527;28;20023;-91
2023/08/11 02:33:49;;;;;;;9.67;8.67;;;;;;;-148.15;100.00;61821.78;4976371;28;20022;-91
2023/08/11 02:36:14;;;;;;;12.43;9.73;;;;;;;-148.15;100.00;61821.78;4992110;28;20393;-90
2023/08/11 02:38:39;;;;;;;11.87;9.13;;;;;;;-148.15;100.00;61821.78;4982017;28;20031;-92
2023/08/11 02:41:05;;;;;;;9.83;8.87;;;;;;;-148.15;100.00;61821.78;4991862;28;20065;-89
2023/08/11 02:43:31;;;;;;;11.60;8.93;;;;;;;-148.15;100.00;61821.78;4983616;28;20743;-88
2023/08/11 02:45:56;;;;;;;10.60;8.93;;;;;;;-148.15;100.00;61821.78;4971743;28;20282;-89
2023/08/11 02:48:21;;;;;;;11.33;9.50;;;;;;;-148.15;100.00;61821.78;4971247;28;20031;-88
2023/08/11 02:50:47;;;;;;;14.87;9.47;;;;;;;-148.15;100.00;61821.78;4990575;28;20286;-89
2023/08/11 02:53:12;;;;;;;13.80;9.10;;;;;;;-148.15;100.00;61821.78;4976465;28;20054;-89
2023/08/11 02:55:37;;;;;;;11.20;9.57;;;;;;;-148.15;100.00;61821.78;4975969;28;20075;-89
2023/08/11 02:58:05;;;;;;;12.97;9.63;;;;;;;-148.15;100.00;61821.78;4987934;28;20069;-88
2023/08/11 03:00:33;;;;;;;13.27;9.27;;;;;;;-148.15;100.00;61821.78;4971944;28;20034;-89
2023/08/11 03:02:58;;;;;;;12.55;9.85;;;;;;;-148.15;100.00;61821.78;4973627;28;20066;-90
2023/08/11 03:05:24;;;;;;;13.15;10.23;;;;;;;-148.15;100.00;61821.78;4972332;28;20065;-89
2023/08/11 03:07:50;;;;;;;12.70;9.63;;;;;;;-148.15;100.00;61821.78;4977193;28;20026;-90
2023/08/11 03:10:15;;;;;;;13.10;9.90;;;;;;;-148.15;100.00;61821.78;4992303;28;20328;-90
2023/08/11 03:12:41;;;;;;;10.77;9.67;;;;;;;-148.15;100.00;61821.78;4995493;28;20034;-89
2023/08/11 03:15:08;;;;;;;11.63;9.50;;;;;;;-148.15;100.00;61821.78;4995693;28;20055;-89
2023/08/11 03:17:35;;;;;;;12.82;9.68;;;;;;;-148.15;100.00;61821.78;4975008;28;20589;-88
2023/08/11 03:20:00;;;;;;;13.43;9.73;;;;;;;-148.15;100.00;61821.78;4993852;28;20038;-87
2023/08/11 03:22:26;;;;;;;20.40;9.43;;;;;;;-148.15;100.00;61821.78;4994385;28;20026;-84
2023/08/11 03:24:51;;;;;;;15.40;9.87;;;;;;;-148.15;100.00;61821.78;4994355;28;20080;-83
2023/08/11 03:27:18;;;;;;;11.53;9.90;;;;;;;-148.15;100.00;61821.78;4989958;28;20030;-84
2023/08/11 03:29:44;;;;;;;11.05;9.25;;;;;;;-148.15;100.00;61821.78;4973150;28;20056;-86
2023/08/11 03:32:09;;;;;;;12.57;10.03;;;;;;;-148.15;100.00;61821.78;4975029;28;20026;-86
2023/08/11 03:34:34;;;;;;;12.10;9.57;;;;;;;-148.15;100.00;61821.78;4972396;28;20093;-87
2023/08/11 03:37:00;;;;;;;13.10;10.47;;;;;;;-148.15;100.00;61821.78;4966454;28;20031;-86
2023/08/11 03:39:25;;;;;;;11.43;10.17;;;;;;;-148.15;100.00;61821.78;4979607;28;20033;-86
2023/08/11 03:41:52;;;;;;;11.27;9.85;;;;;;;-148.15;100.00;61821.78;4962186;28;20031;-86
2023/08/11 03:44:17;;;;;;;14.00;9.75;;;;;;;-148.15;100.00;61821.78;4955881;29;20027;-86
2023/08/11 03:46:43;;;;;;;12.03;9.73;;;;;;;-148.15;100.00;61821.78;4955000;29;20039;-86
2023/08/11 03:49:09;;;;;;;12.68;10.63;;;;;;;-148.15;100.00;61821.78;4983033;28;20037;-86
2023/08/11 03:51:34;;;;;;;11.60;10.20;;;;;;;-148.15;100.00;61821.78;4970695;28;20089;-86
2023/08/11 03:54:02;;;;;;;11.95;10.27;;;;;;;-148.15;100.00;61821.78;4972460;28;20037;-87
2023/08/11 03:56:28;;;;;;;13.67;10.17;;;;;;;-148.15;100.00;61821.78;4974144;28;20114;-87
2023/08/11 03:58:54;;;;;;;11.77;10.35;;;;;;;-148.15;100.00;61821.78;4992210;28;20518;-87
2023/08/11 04:01:19;;;;;;;11.82;10.48;;;;;;;-148.15;100.00;61821.78;4991276;28;20034;-87
2023/08/11 04:03:44;;;;;;;16.07;10.30;;;;;;;-148.15;100.00;61821.78;4988450;28;20038;-86
2023/08/11 04:06:10;;;;;;;11.00;9.63;;;;;;;-148.15;100.00;61821.78;4971749;28;20038;-86
2023/08/11 04:08:35;;;;;;;14.17;10.80;;;;;;;-148.15;100.00;61821.78;4976596;28;20055;-86
2023/08/11 04:11:01;;;;;;;13.85;10.40;;;;;;;-148.15;100.00;61821.78;4975523;28;20038;-86
2023/08/11 04:13:26;;;;;;;13.33;10.07;;;;;;;-148.15;100.00;61821.78;4989906;28;20061;-86
2023/08/11 04:15:52;;;;;;;13.77;10.57;;;;;;;-148.15;100.00;61821.78;4977234;28;20031;-86
2023/08/11 04:18:18;;;;;;;14.53;10.60;;;;;;;-148.15;100.00;61821.78;4977876;28;20019;-89
2023/08/11 04:20:43;;;;;;;13.87;10.97;;;;;;;-148.15;100.00;61821.78;4970898;28;20039;-88
2023/08/11 04:23:08;;;;;;;13.60;11.20;;;;;;;-148.15;100.00;61821.78;4983680;28;20289;-88
2023/08/11 04:25:34;;;;;;;13.73;10.83;;;;;;;-148.15;100.00;61821.78;4972347;28;20161;-88
2023/08/11 04:28:01;;;;;;;16.83;11.47;;;;;;;-148.15;100.00;61821.78;4974752;28;20113;-88
2023/08/11 04:30:26;;;;;;;15.63;10.90;;;;;;;-148.15;100.00;61821.78;4976077;28;20035;-88
2023/08/11 04:32:52;;;;;;;12.57;11.10;;;;;;;-148.15;100.00;61821.78;4973811;28;20560;-89
2023/08/11 04:35:18;;;;;;;17.63;11.90;;;;;;;-148.15;100.00;61821.78;4990206;28;20034;-88
2023/08/11 04:37:44;;;;;;;13.47;11.00;;;;;;;-148.15;100.00;61821.78;4978973;28;20030;-92
2023/08/11 04:40:10;;;;;;;14.45;11.43;;;;;;;-148.15;100.00;61821.78;4982597;28;20053;-91
2023/08/11 04:42:46;;;;;;;15.73;11.90;;;;;;;-148.15;100.00;61821.78;4994890;28;20026;-91
2023/08/11 04:51:08;;;;;;;15.80;11.70;;;;;;;-148.15;100.00;61821.78;4975145;28;20104;-90
2023/08/11 04:53:34;;;;;;;14.83;11.57;;;;;;;-148.15;100.00;61821.78;4977512;28;20038;-89
2023/08/11 04:55:59;;;;;;;17.83;12.53;;;;;;;-148.15;100.00;61821.78;4993788;28;20053;-86
2023/08/11 04:58:25;;;;;;;17.97;11.90;;;;;;;-148.15;100.00;61821.78;4991978;28;20042;-88
2023/08/11 05:00:51;;;;;;;16.73;12.47;;;;;;;-148.15;100.00;61821.78;4992790;28;20300;-91
2023/08/11 05:03:16;;;;;;;15.85;12.32;;;;;;;-148.15;100.00;61821.78;4994701;28;20037;-90
2023/08/11 05:05:44;;;;;;;14.73;11.50;;;;;;;-148.15;100.00;61821.78;4969591;28;20422;-89
2023/08/11 05:08:10;;;;;;;19.30;12.75;;;;;;;-148.15;100.00;61821.78;4973393;28;20034;-86
2023/08/11 05:10:35;;;;;;;21.87;11.97;;;;;;;-148.15;100.00;61821.78;4983531;28;20390;-88
2023/08/11 05:13:00;;;;;;;17.00;12.17;;;;;;;-148.15;100.00;61821.78;4981169;28;20410;-87
2023/08/11 05:15:26;;;;;;;18.47;12.07;;;;;;;-148.15;100.00;61821.78;4971454;28;20316;-89
2023/08/11 05:17:51;;;;;;;16.13;12.30;;;;;;;-148.15;100.00;61821.78;4980654;28;20041;-93
2023/08/11 05:20:17;;;;;;;15.73;11.87;;;;;;;-148.15;100.00;61821.78;4965622;28;20033;-92
2023/08/11 05:22:43;;;;;;;16.88;12.82;;;;;;;-148.15;100.00;61821.78;4955254;29;20484;-91
2023/08/11 05:25:09;;;;;;;17.13;12.00;;;;;;;-148.15;100.00;61821.78;4973252;28;20031;-90
2023/08/11 05:27:34;;;;;;;21.50;14.30;;;;;;;-148.15;100.00;61821.78;4956804;28;20026;-92
2023/08/11 05:30:00;;;;;;;18.50;12.70;;;;;;;-148.15;100.00;61821.78;4986417;28;20046;-90
2023/08/11 05:32:26;;;;;;;18.05;12.65;;;;;;;-148.15;100.00;61821.78;4993328;28;20042;-87
2023/08/11 05:34:53;;;;;;;17.93;11.97;;;;;;;-148.15;100.00;61821.78;4956962;28;20023;-87
2023/08/11 05:37:18;;;;;;;16.55;11.68;;;;;;;-148.15;100.00;61821.78;4955853;28;20050;-85
2023/08/11 05:39:44;;;;;;;15.17;11.10;;;;;;;-148.15;100.00;61821.78;4953097;28;20063;-85
2023/08/11 05:42:09;;;;;;;18.30;11.10;;;;;;;-148.15;100.00;61821.78;4974684;28;20301;-90
2023/08/11 05:44:35;;;;;;;14.53;11.63;;;;;;;-148.15;100.00;61821.78;4979764;28;20081;-87
2023/08/11 05:47:00;;;;;;;16.45;11.18;;;;;;;-148.15;100.00;61821.78;4991662;28;20027;-87
2023/08/11 05:49:26;;;;;;;18.10;11.20;;;;;;;-148.15;100.00;61821.78;4976047;28;20089;-87
2023/08/11 05:51:51;;;;;;;21.27;10.97;;;;;;;-148.15;100.00;61821.78;4975636;28;20039;-87
2023/08/11 05:54:16;;;;;;;20.25;12.10;;;;;;;-148.15;100.00;61821.78;4972949;28;20096;-88
2023/08/11 05:56:42;;;;;;;14.10;10.50;;;;;;;-148.15;100.00;61821.78;4970679;28;20062;-88
2023/08/11 05:59:07;;;;;;;15.03;10.63;;;;;;;-148.15;100.00;61821.78;4969236;28;20030;-88
2023/08/11 06:01:33;;;;;;;20.20;11.17;;;;;;;-148.15;100.00;61821.78;4972558;28;20781;-87
2023/08/11 06:03:58;;;;;;;17.42;10.55;;;;;;;-148.15;100.00;61821.78;4972231;28;20514;-88
2023/08/11 06:06:24;;;;;;;16.63;10.80;;;;;;;-148.15;100.00;61821.78;4967138;28;20030;-88
2023/08/11 06:08:50;;;;;;;14.25;9.98;;;;;;;-148.15;100.00;61821.78;4972225;28;20027;-88
2023/08/11 06:11:15;;;;;;;15.07;10.37;;;;;;;-148.15;100.00;61821.78;4970582;28;20037;-87
2023/08/11 06:13:40;;;;;;;18.83;10.17;;;;;;;-148.15;100.00;61821.78;4970956;28;20035;-88
2023/08/11 06:16:05;;;;;;;18.53;10.53;;;;;;;-148.15;100.00;61821.78;4970126;28;20097;-87
2023/08/11 06:18:31;;;;;;;15.00;10.30;;;;;;;-148.15;100.00;61821.78;4975459;28;20703;-87
2023/08/11 06:20:57;;;;;;;15.07;10.20;;;;;;;-148.15;100.00;61821.78;4989501;28;20102;-84
2023/08/11 06:23:22;;;;;;;14.20;10.35;;;;;;;-148.15;100.00;61821.78;4991102;28;20045;-87
2023/08/11 06:25:47;;;;;;;13.97;9.30;;;;;;;-148.15;100.00;61821.78;4960606;28;20031;-86
2023/08/11 06:28:14;;;;;;;15.27;9.77;;;;;;;-148.15;100.00;61821.78;4952325;29;20031;-86
2023/08/11 06:30:39;;;;;;;14.98;8.85;;;;;;;-148.15;100.00;61821.78;4958589;28;20030;-86
2023/08/11 06:33:04;;;;;;;14.90;9.07;;;;;;;-148.15;100.00;61821.78;4973715;28;20147;-90
2023/08/11 06:35:30;;;;;;;17.47;8.60;;;;;;;-148.15;100.00;61821.78;4972292;28;20026;-92
2023/08/11 06:37:55;;;;;;;13.95;8.13;;;;;;;-148.15;100.00;61821.78;4971710;28;20026;-91
2023/08/11 06:40:20;;;;;;;13.53;7.60;;;;;;;-148.15;100.00;61821.78;4982232;28;20411;-88
2023/08/11 06:42:46;;;;;;;10.83;7.20;;;;;;;-148.15;100.00;61821.78;4991632;28;20122;-90
2023/08/11 06:45:11;;;;;;;11.73;7.13;;;;;;;-148.15;100.00;61821.78;4974163;28;20034;-89
2023/08/11 06:47:37;;;;;;;10.38;6.95;;;;;;;-148.15;100.00;61821.78;4979318;28;20038;-88
2023/08/11 06:50:05;;;;;;;14.83;7.20;;;;;;;-148.15;100.00;61821.78;4983615;28;20041;-89
2023/08/11 06:52:31;;;;;;;8.48;6.32;;;;;;;-148.15;100.00;61821.78;4954328;28;20039;-89
2023/08/11 06:54:56;;;;;;;8.93;6.13;;;;;;;-148.15;100.00;61821.78;4957892;29;20538;-89
2023/08/11 06:57:21;;;;;;;7.40;5.53;;;;;;;-148.15;100.00;61821.78;4954658;29;20027;-89
2023/08/11 06:59:48;;;;;;;10.00;5.97;;;;;;;-148.15;100.00;61821.78;4954366;28;20030;-89
2023/08/11 07:02:13;;;;;;;8.47;5.13;;;;;;;-148.15;100.00;61821.78;4953041;28;20039;-89
2023/08/11 07:04:39;;;;;;;9.27;5.40;;;;;;;-148.15;100.00;61821.78;4961771;28;20753;-89
2023/08/11 07:07:05;;;;;;;6.28;5.00;;;;;;;-148.15;100.00;61821.78;4973912;28;20031;-88
2023/08/11 07:09:31;;;;;;;7.57;5.00;;;;;;;-148.15;100.00;61821.78;4972240;28;20467;-88
2023/08/11 07:11:56;;;;;;;10.17;5.00;;;;;;;-148.15;100.00;61821.78;4971911;28;20027;-88
2023/08/11 07:14:22;;;;;;;7.03;4.70;;;;;;;-148.15;100.00;61821.78;4970470;28;20066;-89
2023/08/11 07:16:47;;;;;;;8.35;4.40;;;;;;;-148.15;100.00;61821.78;4951944;28;20119;-88
2023/08/11 07:19:12;;;;;;;7.47;4.47;;;;;;;-148.15;100.00;61821.78;4965481;28;20066;-88
2023/08/11 07:21:38;;;;;;;7.40;4.20;;;;;;;-148.15;100.00;61821.78;4971484;28;20022;-88
2023/08/11 07:24:03;;;;;;;8.57;4.57;;;;;;;-148.15;100.00;61821.78;4972368;28;20134;-88
2023/08/11 07:26:29;;;;;;;10.77;4.20;;;;;;;-148.15;100.00;61821.78;4971254;28;20023;-89
2023/08/11 07:28:54;;;;;;;10.25;4.20;;;;;;;-148.15;100.00;61821.78;4971183;28;20114;-88
2023/08/11 07:31:19;;;;;;;6.63;3.87;;;;;;;-148.15;100.00;61821.78;4972008;28;20042;-89
2023/08/11 07:33:44;;;;;;;10.37;4.27;;;;;;;-148.15;100.00;61821.78;4986134;28;20027;-89
2023/08/11 07:36:10;;;;;;;8.20;3.83;;;;;;;-148.15;100.00;61821.78;4990984;28;20026;-88
2023/08/11 07:38:35;;;;;;;8.10;3.83;;;;;;;-148.15;100.00;61821.78;4991334;28;20479;-89
2023/08/11 07:41:01;;;;;;;5.43;3.50;;;;;;;-148.15;100.00;61821.78;4990859;28;20449;-89
2023/08/11 07:43:26;;;;;;;5.73;3.53;;;;;;;-148.15;100.00;61821.78;4977892;28;20290;-88
2023/08/11 07:45:51;;;;;;;5.40;3.80;;;;;;;-148.15;100.00;61821.78;4970424;28;20043;-89
2023/08/11 07:48:18;;;;;;;7.50;3.87;;;;;;;-148.15;100.00;61821.78;4989432;28;20488;-88
2023/08/11 07:50:43;;;;;;;7.35;3.33;;;;;;;-148.15;100.00;61821.78;4990405;28;20117;-89
2023/08/11 07:53:09;;;;;;;6.80;3.80;;;;;;;-148.15;100.00;61821.78;4983623;28;20107;-89
2023/08/11 07:55:34;;;;;;;8.33;3.40;;;;;;;-148.15;100.00;61821.78;4952337;28;20561;-89
2023/08/11 07:57:59;;;;;;;5.90;3.70;;;;;;;-148.15;100.00;61821.78;4956043;29;20094;-89
2023/08/11 08:00:25;;;;;;;13.00;3.87;;;;;;;-148.15;100.00;61821.78;4957625;28;20059;-89
2023/08/11 08:02:54;;;;;;;4.93;3.60;;;;;;;-148.15;100.00;61821.78;4994477;28;20284;-89
2023/08/11 08:05:20;;;;;;;7.30;3.22;;;;;;;-148.15;100.00;61821.78;4994876;28;20036;-86
2023/08/11 08:07:46;;;;;;;7.38;3.55;;;;;;;-148.15;100.00;61821.78;5002063;28;20045;-86
2023/08/11 08:10:13;;;;;;;7.17;3.53;;;;;;;-148.15;100.00;61821.78;4991476;28;20026;-86
2023/08/11 08:12:41;;;;;;;9.23;3.75;;;;;;;-148.15;100.00;61821.78;4975829;28;20030;-87
2023/08/11 08:15:08;;;;;;;8.68;3.58;;;;;;;-148.15;100.00;61821.78;4988586;28;20034;-88
2023/08/11 08:17:34;;;;;;;4.57;3.13;;;;;;;-148.15;100.00;61821.78;4994648;28;20031;-87
2023/08/11 08:19:59;;;;;;;10.77;3.58;;;;;;;-148.15;100.00;61821.78;4994690;28;20037;-89
2023/08/11 08:22:25;;;;;;;4.83;3.30;;;;;;;-148.15;100.00;61821.78;4995711;28;20054;-87
2023/08/11 08:24:52;;;;;;;8.10;3.33;;;;;;;-148.15;100.00;61821.78;4973404;28;20360;-87
2023/08/11 08:27:23;;;;;;;7.05;3.38;;;;;;;-148.15;100.00;61821.78;4958568;28;20023;-88
2023/08/11 08:29:49;;;;;;;7.88;3.13;;;;;;;-148.15;100.00;61821.78;4974227;28;20492;-87
2023/08/11 08:32:14;;;;;;;5.97;3.58;;;;;;;-148.15;100.00;61821.78;4994254;28;20033;-88
2023/08/11 08:34:40;;;;;;;5.47;3.40;;;;;;;-148.15;100.00;61821.78;4994146;28;20058;-88
2023/08/11 08:37:05;;;;;;;6.87;3.57;;;;;;;-148.15;100.00;61821.78;4994586;28;20022;-88
2023/08/11 08:39:31;;;;;;;7.20;3.60;;;;;;;-148.15;100.00;61821.78;4959805;28;20106;-88
2023/08/11 08:41:58;;;;;;;8.33;3.30;;;;;;;-148.15;100.00;61821.78;4955673;28;20058;-88
2023/08/11 08:44:23;;;;;;;6.50;3.15;;;;;;;-148.15;100.00;61821.78;4968302;28;20502;-89
2023/08/11 08:46:53;;;;;;;4.53;3.33;;;;;;;-148.15;100.00;61821.78;4974695;28;20061;-89
2023/08/11 08:49:25;;;;;;;5.93;2.97;;;;;;;-148.15;100.00;61821.78;4975164;28;20050;-88
2023/08/11 08:51:52;;;;;;;5.60;2.80;;;;;;;-148.15;100.00;61821.78;4971340;28;20054;-88
2023/08/11 08:54:18;;;;;;;3.58;3.08;;;;;;;-148.15;100.00;61821.78;4988799;28;20030;-89
2023/08/11 08:56:43;;;;;;;9.10;3.42;;;;;;;-148.15;100.00;61821.78;4993893;28;20847;-89
2023/08/11 08:59:08;;;;;;;5.03;3.50;;;;;;;-148.15;100.00;61821.78;4994536;28;20057;-88
2023/08/11 09:01:35;;;;;;;6.23;3.33;;;;;;;-148.15;100.00;61821.78;4994346;28;20058;-88
2023/08/11 09:04:02;;;;;;;3.80;3.20;;;;;;;-148.15;100.00;61821.78;4994776;28;20023;-88
2023/08/11 09:06:43;;;;;;;5.63;3.53;;;;;;;-148.15;100.00;61821.78;5007742;23;20047;-88
2023/08/11 09:09:09;;;;;;;4.10;3.10;;;;;;;-148.15;100.00;61821.78;4993941;28;20817;-88
2023/08/11 09:11:38;;;;;;;5.32;3.35;;;;;;;-148.15;100.00;61821.78;4994739;28;20022;-89
2023/08/11 09:14:04;;;;;;;6.38;2.90;;;;;;;-148.15;100.00;61821.78;4994801;28;20030;-87
2023/08/11 09:16:31;;;;;;;9.13;3.28;;;;;;;-148.15;100.00;61821.78;4994483;28;20415;-87
2023/08/11 09:18:57;;;;;;;5.63;3.03;;;;;;;-148.15;100.00;61821.78;4994380;28;20363;-88
2023/08/11 09:21:24;;;;;;;5.13;2.90;;;;;;;-148.15;100.00;61821.78;4984833;28;20084;-87
2023/08/11 09:23:54;;;;;;;4.97;3.13;;;;;;;-148.15;100.00;61821.78;4994453;28;20844;-87
2023/08/11 09:26:21;;;;;;;4.03;2.80;;;;;;;-148.15;100.00;61821.78;4995047;28;20030;-88
2023/08/11 09:28:46;;;;;;;6.35;2.92;;;;;;;-148.15;100.00;61821.78;4984101;28;20104;-87
2023/08/11 09:31:12;;;;;;;5.47;3.20;;;;;;;-148.15;100.00;61821.78;4994076;28;20474;-88
2023/08/11 09:33:40;;;;;;;3.83;3.20;;;;;;;-148.15;100.00;61821.78;5003293;28;20080;-87
2023/08/11 09:38:36;;;;;;;3.42;2.95;;;;;;;-148.15;100.00;61821.78;4952325;29;20059;-87
2023/08/11 09:41:04;;;;;;;6.57;3.03;;;;;;;-148.15;100.00;61821.78;4954284;29;20046;-88
2023/08/11 09:43:30;;;;;;;3.30;2.90;;;;;;;-148.15;100.00;61821.78;4954067;29;20034;-87
2023/08/11 09:45:59;;;;;;;3.25;2.95;;;;;;;-148.15;100.00;61821.78;4953910;28;20043;-87
2023/08/11 09:48:25;;;;;;;5.55;3.10;;;;;;;-148.15;100.00;61821.78;4953239;29;20031;-87
2023/08/11 09:50:51;;;;;;;3.35;3.03;;;;;;;-148.15;100.00;61821.78;4953143;29;20114;-87
2023/08/11 09:53:18;;;;;;;8.30;3.07;;;;;;;-148.15;100.00;61821.78;4953427;29;20027;-87
2023/08/11 09:55:44;;;;;;;3.17;2.88;;;;;;;-148.15;100.00;61821.78;4953296;28;20399;-87
2023/08/11 09:58:13;;;;;;;3.97;2.83;;;;;;;-148.15;100.00;61821.78;4953719;29;20058;-87
2023/08/11 10:00:40;;;;;;;4.38;2.88;;;;;;;-148.15;100.00;61821.78;4952971;29;20744;-87
2023/08/11 10:03:09;;;;;;;8.45;2.90;;;;;;;-148.15;100.00;61821.78;4953201;29;20154;-87
2023/08/11 10:05:39;;;;;;;4.15;3.20;;;;;;;-148.15;100.00;61821.78;4953337;28;20597;-86
2023/08/11 10:08:09;;;;;;;6.47;3.00;;;;;;;-148.15;100.00;61821.78;4953497;28;20420;-86
2023/08/11 10:10:37;;;;;;;4.75;3.10;;;;;;;-148.15;100.00;61821.78;4953577;28;20032;-87
2023/08/11 10:13:07;;;;;;;4.63;2.60;;;;;;;-148.15;100.00;61821.78;4953178;28;20030;-88
2023/08/11 10:15:33;;;;;;;4.70;2.70;;;;;;;-148.15;100.00;61821.78;4952397;28;20326;-87
2023/08/11 10:18:01;;;;;;;8.23;2.97;;;;;;;-148.15;100.00;61821.78;4952346;28;20403;-88
2023/08/11 10:20:26;;;;;;;3.80;2.80;;;;;;;-148.15;100.00;61821.78;4934638;29;20071;-90
2023/08/11 10:22:52;;;;;;;5.07;2.97;;;;;;;-148.15;100.00;61821.78;4947603;28;20050;-92
2023/08/11 10:25:18;;;;;;;2.60;2.40;;;;;;;-148.15;100.00;61821.78;4953961;28;20487;-89
2023/08/11 10:27:45;;;;;;;5.77;2.60;;;;;;;-148.15;100.00;61821.78;4952921;29;20034;-89
2023/08/11 10:30:14;;;;;;;4.87;2.87;;;;;;;-148.15;100.00;61821.78;4953811;29;20332;-87
2023/08/11 10:32:40;;;;;;;4.93;2.30;;;;;;;-148.15;100.00;61821.78;4953671;29;20079;-89
2023/08/11 10:35:47;;;;;;;3.28;2.53;;;;;;;-148.15;100.00;61821.78;4953211;28;20475;-88
2023/08/11 10:38:12;;;;;;;2.57;2.37;;;;;;;-148.15;100.00;61821.78;4924594;29;20046;-88
2023/08/11 10:40:39;;;;;;;2.83;2.40;;;;;;;-148.15;100.00;61821.78;4963019;28;20027;-88
2023/08/11 10:43:05;;;;;;;3.53;2.40;;;;;;;-148.15;100.00;61821.78;4977453;28;20022;-86
2023/08/11 10:45:36;;;;;;;6.10;2.47;;;;;;;-148.15;100.00;61821.78;4973933;28;20039;-87
2023/08/11 10:48:09;;;;;;;5.37;2.30;;;;;;;-148.15;100.00;61821.78;4974898;28;20034;-88
2023/08/11 10:50:38;;;;;;;4.53;2.50;;;;;;;-148.15;100.00;61821.78;4977102;28;20279;-88
2023/08/11 10:53:20;;;;;;;4.20;2.28;;;;;;;-148.15;100.00;61821.78;4976139;28;20054;-86
2023/08/11 10:55:59;;;;;;;4.75;2.80;;;;;;;-148.15;100.00;61821.78;4976592;28;20043;-88
2023/08/11 10:58:25;;;;;;;4.32;2.60;;;;;;;-148.15;100.00;61821.78;4968179;29;20057;-86
2023/08/11 11:00:51;;;;;;;6.37;2.70;;;;;;;-148.15;100.00;61821.78;4950738;28;20062;-87
2023/08/11 11:03:17;;;;;;;3.33;2.60;;;;;;;-148.15;100.00;61821.78;4953571;29;20038;-88
2023/08/11 11:05:43;;;;;;;3.80;2.60;;;;;;;-148.15;100.00;61821.78;4951102;28;20525;-88
2023/08/11 11:08:09;;;;;;;5.13;2.40;;;;;;;-148.15;100.00;61821.78;4952446;28;20067;-87
2023/08/11 11:10:34;;;;;;;3.20;2.30;;;;;;;-148.15;100.00;61821.78;4951871;28;20038;-88